sensor_id;sensor_type;location;lat;lon;timestamp;P1;durP1;ratioP1;P2;durP2;ratioP2
67816;SDS011;54614;47.576;7.524;2023-06-22T00:01:09;7.40;;;5.20;;
67816;SDS011;54614;47.576;7.524;2023-06-22T00:03:34;8.20;;;4.63;;
67816;SDS011;54614;47.576;7.524;2023-06-22T00:06:00;7.13;;;4.70;;
67816;SDS011;54614;47.576;7.524;2023-06-22T00:08:25;6.45;;;4.50;;
67816;SDS011;54614;47.576;7.524;2023-06-22T00:10:51;6.43;;;4.68;;
67816;SDS011;54614;47.576;7.524;2023-06-22T00:13:17;8.07;;;4.68;;
67816;SDS011;54614;47.576;7.524;2023-06-22T00:15:43;5.88;;;4.53;;
67816;SDS011;54614;47.576;7.524;2023-06-22T00:18:09;9.90;;;4.82;;
67816;SDS011;54614;47.576;7.524;2023-06-22T00:20:36;7.00;;;4.57;;
67816;SDS011;54614;47.576;7.524;2023-06-22T00:23:03;8.77;;;4.43;;
67816;SDS011;54614;47.576;7.524;2023-06-22T00:25:36;8.50;;;4.55;;
67816;SDS011;54614;47.576;7.524;2023-06-22T00:28:03;7.07;;;4.45;;
67816;SDS011;54614;47.576;7.524;2023-06-22T00:30:29;5.85;;;4.15;;
67816;SDS011;54614;47.576;7.524;2023-06-22T00:32:56;8.48;;;4.70;;
67816;SDS011;54614;47.576;7.524;2023-06-22T00:35:21;8.05;;;4.53;;
67816;SDS011;54614;47.576;7.524;2023-06-22T00:37:47;7.40;;;4.32;;
67816;SDS011;54614;47.576;7.524;2023-06-22T00:40:13;6.85;;;4.38;;
67816;SDS011;54614;47.576;7.524;2023-06-22T00:42:39;5.53;;;4.20;;
67816;SDS011;54614;47.576;7.524;2023-06-22T00:45:06;5.28;;;4.03;;
67816;SDS011;54614;47.576;7.524;2023-06-22T00:47:33;6.97;;;4.63;;
67816;SDS011;54614;47.576;7.524;2023-06-22T00:49:59;5.70;;;4.30;;
67816;SDS011;54614;47.576;7.524;2023-06-22T00:52:25;6.68;;;4.20;;
67816;SDS011;54614;47.576;7.524;2023-06-22T00:54:54;7.47;;;4.30;;
67816;SDS011;54614;47.576;7.524;2023-06-22T00:57:21;6.90;;;4.22;;
67816;SDS011;54614;47.576;7.524;2023-06-22T00:59:50;7.80;;;4.25;;
67816;SDS011;54614;47.576;7.524;2023-06-22T01:02:15;6.38;;;4.03;;
67816;SDS011;54614;47.576;7.524;2023-06-22T01:04:41;7.57;;;4.43;;
67816;SDS011;54614;47.576;7.524;2023-06-22T01:12:48;7.38;;;4.10;;
67816;SDS011;54614;47.576;7.524;2023-06-22T01:18:04;4.90;;;4.03;;
67816;SDS011;54614;47.576;7.524;2023-06-22T01:20:30;8.30;;;4.00;;
67816;SDS011;54614;47.576;7.524;2023-06-22T01:23:02;7.07;;;4.38;;
67816;SDS011;54614;47.576;7.524;2023-06-22T01:31:22;5.47;;;3.95;;
67816;SDS011;54614;47.576;7.524;2023-06-22T01:33:51;5.80;;;4.20;;
67816;SDS011;54614;47.576;7.524;2023-06-22T01:36:22;5.75;;;4.05;;
67816;SDS011;54614;47.576;7.524;2023-06-22T01:38:50;8.18;;;4.28;;
67816;SDS011;54614;47.576;7.524;2023-06-22T01:41:18;6.97;;;4.30;;
67816;SDS011;54614;47.576;7.524;2023-06-22T01:43:45;7.13;;;4.03;;
67816;SDS011;54614;47.576;7.524;2023-06-22T01:46:12;6.03;;;4.30;;
67816;SDS011;54614;47.576;7.524;2023-06-22T01:48:39;7.85;;;4.00;;
67816;SDS011;54614;47.576;7.524;2023-06-22T01:51:05;5.88;;;3.90;;
67816;SDS011;54614;47.576;7.524;2023-06-22T01:53:31;5.95;;;4.05;;
67816;SDS011;54614;47.576;7.524;2023-06-22T01:55:57;5.72;;;4.30;;
67816;SDS011;54614;47.576;7.524;2023-06-22T01:58:23;4.75;;;4.13;;
67816;SDS011;54614;47.576;7.524;2023-06-22T02:00:53;11.00;;;4.30;;
67816;SDS011;54614;47.576;7.524;2023-06-22T02:03:32;6.45;;;4.88;;
67816;SDS011;54614;47.576;7.524;2023-06-22T02:06:10;7.93;;;4.30;;
67816;SDS011;54614;47.576;7.524;2023-06-22T02:08:41;6.78;;;4.55;;
67816;SDS011;54614;47.576;7.524;2023-06-22T02:11:15;5.68;;;4.15;;
67816;SDS011;54614;47.576;7.524;2023-06-22T02:13:44;8.10;;;4.50;;
67816;SDS011;54614;47.576;7.524;2023-06-22T02:16:11;4.70;;;4.18;;
67816;SDS011;54614;47.576;7.524;2023-06-22T02:18:38;7.25;;;4.28;;
67816;SDS011;54614;47.576;7.524;2023-06-22T02:21:05;5.30;;;4.18;;
67816;SDS011;54614;47.576;7.524;2023-06-22T02:23:31;7.75;;;4.47;;
67816;SDS011;54614;47.576;7.524;2023-06-22T02:25:59;6.47;;;4.60;;
67816;SDS011;54614;47.576;7.524;2023-06-22T02:28:25;6.88;;;4.50;;
67816;SDS011;54614;47.576;7.524;2023-06-22T02:30:51;6.78;;;4.50;;
67816;SDS011;54614;47.576;7.524;2023-06-22T02:33:16;5.00;;;4.35;;
67816;SDS011;54614;47.576;7.524;2023-06-22T02:35:42;4.97;;;4.25;;
67816;SDS011;54614;47.576;7.524;2023-06-22T02:38:10;5.57;;;4.40;;
67816;SDS011;54614;47.576;7.524;2023-06-22T02:40:36;8.00;;;4.32;;
67816;SDS011;54614;47.576;7.524;2023-06-22T02:43:02;6.32;;;4.47;;
67816;SDS011;54614;47.576;7.524;2023-06-22T02:45:28;6.65;;;4.47;;
67816;SDS011;54614;47.576;7.524;2023-06-22T02:47:54;5.03;;;4.00;;
67816;SDS011;54614;47.576;7.524;2023-06-22T02:50:20;5.70;;;3.97;;
67816;SDS011;54614;47.576;7.524;2023-06-22T02:52:46;5.82;;;4.47;;
67816;SDS011;54614;47.576;7.524;2023-06-22T02:55:12;6.47;;;4.60;;
67816;SDS011;54614;47.576;7.524;2023-06-22T02:57:38;7.40;;;4.53;;
67816;SDS011;54614;47.576;7.524;2023-06-22T03:00:08;10.38;;;4.60;;
67816;SDS011;54614;47.576;7.524;2023-06-22T03:02:44;7.38;;;4.25;;
67816;SDS011;54614;47.576;7.524;2023-06-22T03:05:11;6.55;;;4.30;;
67816;SDS011;54614;47.576;7.524;2023-06-22T03:07:39;5.15;;;4.38;;
67816;SDS011;54614;47.576;7.524;2023-06-22T03:10:05;5.05;;;4.05;;
67816;SDS011;54614;47.576;7.524;2023-06-22T03:12:32;6.63;;;4.32;;
67816;SDS011;54614;47.576;7.524;2023-06-22T03:14:58;5.43;;;4.43;;
67816;SDS011;54614;47.576;7.524;2023-06-22T03:17:23;4.90;;;4.40;;
67816;SDS011;54614;47.576;7.524;2023-06-22T03:19:49;7.45;;;4.30;;
67816;SDS011;54614;47.576;7.524;2023-06-22T03:22:15;7.28;;;4.60;;
67816;SDS011;54614;47.576;7.524;2023-06-22T03:24:41;5.50;;;4.05;;
67816;SDS011;54614;47.576;7.524;2023-06-22T03:27:06;5.32;;;4.20;;
67816;SDS011;54614;47.576;7.524;2023-06-22T03:29:32;6.70;;;4.13;;
67816;SDS011;54614;47.576;7.524;2023-06-22T03:31:58;7.20;;;4.70;;
67816;SDS011;54614;47.576;7.524;2023-06-22T03:34:23;10.32;;;6.70;;
67816;SDS011;54614;47.576;7.524;2023-06-22T03:36:49;13.13;;;7.20;;
67816;SDS011;54614;47.576;7.524;2023-06-22T03:39:14;17.02;;;8.82;;
67816;SDS011;54614;47.576;7.524;2023-06-22T03:41:40;14.75;;;9.70;;
67816;SDS011;54614;47.576;7.524;2023-06-22T03:44:06;15.05;;;9.52;;
67816;SDS011;54614;47.576;7.524;2023-06-22T03:46:31;18.60;;;10.07;;
67816;SDS011;54614;47.576;7.524;2023-06-22T03:48:57;15.98;;;9.80;;
67816;SDS011;54614;47.576;7.524;2023-06-22T03:51:22;19.20;;;10.00;;
67816;SDS011;54614;47.576;7.524;2023-06-22T03:53:48;15.30;;;9.98;;
67816;SDS011;54614;47.576;7.524;2023-06-22T03:56:14;17.73;;;9.10;;
67816;SDS011;54614;47.576;7.524;2023-06-22T03:58:45;16.20;;;9.07;;
67816;SDS011;54614;47.576;7.524;2023-06-22T04:01:10;13.85;;;8.65;;
67816;SDS011;54614;47.576;7.524;2023-06-22T04:03:36;15.00;;;9.18;;
67816;SDS011;54614;47.576;7.524;2023-06-22T04:06:03;13.38;;;8.50;;
67816;SDS011;54614;47.576;7.524;2023-06-22T04:08:29;21.13;;;8.73;;
67816;SDS011;54614;47.576;7.524;2023-06-22T04:10:55;15.10;;;9.18;;
67816;SDS011;54614;47.576;7.524;2023-06-22T04:13:21;14.70;;;8.43;;
67816;SDS011;54614;47.576;7.524;2023-06-22T04:15:46;17.77;;;8.77;;
67816;SDS011;54614;47.576;7.524;2023-06-22T04:18:12;17.23;;;9.55;;
67816;SDS011;54614;47.576;7.524;2023-06-22T04:20:38;17.08;;;9.02;;
67816;SDS011;54614;47.576;7.524;2023-06-22T04:23:04;13.32;;;8.48;;
67816;SDS011;54614;47.576;7.524;2023-06-22T04:25:30;15.73;;;8.23;;
67816;SDS011;54614;47.576;7.524;2023-06-22T04:27:55;14.13;;;8.18;;
67816;SDS011;54614;47.576;7.524;2023-06-22T04:30:21;17.90;;;8.98;;
67816;SDS011;54614;47.576;7.524;2023-06-22T04:32:47;12.80;;;8.45;;
67816;SDS011;54614;47.576;7.524;2023-06-22T04:35:22;13.15;;;8.43;;
67816;SDS011;54614;47.576;7.524;2023-06-22T04:37:48;14.50;;;8.32;;
67816;SDS011;54614;47.576;7.524;2023-06-22T04:40:15;12.93;;;8.70;;
67816;SDS011;54614;47.576;7.524;2023-06-22T04:42:41;13.93;;;8.13;;
67816;SDS011;54614;47.576;7.524;2023-06-22T04:45:17;17.40;;;8.85;;
67816;SDS011;54614;47.576;7.524;2023-06-22T04:47:42;13.60;;;8.23;;
67816;SDS011;54614;47.576;7.524;2023-06-22T04:50:10;15.68;;;8.20;;
67816;SDS011;54614;47.576;7.524;2023-06-22T04:52:39;13.25;;;8.40;;
67816;SDS011;54614;47.576;7.524;2023-06-22T04:55:05;11.50;;;8.05;;
67816;SDS011;54614;47.576;7.524;2023-06-22T04:57:31;13.68;;;7.88;;
67816;SDS011;54614;47.576;7.524;2023-06-22T04:59:59;16.02;;;8.35;;
67816;SDS011;54614;47.576;7.524;2023-06-22T05:02:37;15.57;;;8.40;;
67816;SDS011;54614;47.576;7.524;2023-06-22T05:05:04;12.90;;;7.93;;
67816;SDS011;54614;47.576;7.524;2023-06-22T05:07:32;17.65;;;8.93;;
67816;SDS011;54614;47.576;7.524;2023-06-22T05:09:59;14.55;;;8.52;;
67816;SDS011;54614;47.576;7.524;2023-06-22T05:12:25;13.65;;;8.82;;
67816;SDS011;54614;47.576;7.524;2023-06-22T05:14:50;9.43;;;6.53;;
67816;SDS011;54614;47.576;7.524;2023-06-22T05:17:16;15.43;;;8.65;;
67816;SDS011;54614;47.576;7.524;2023-06-22T05:19:44;19.77;;;10.40;;
67816;SDS011;54614;47.576;7.524;2023-06-22T05:22:13;18.10;;;10.32;;
67816;SDS011;54614;47.576;7.524;2023-06-22T05:24:42;23.73;;;11.60;;
67816;SDS011;54614;47.576;7.524;2023-06-22T05:27:08;16.35;;;10.45;;
67816;SDS011;54614;47.576;7.524;2023-06-22T05:29:37;21.40;;;11.40;;
67816;SDS011;54614;47.576;7.524;2023-06-22T05:32:04;21.48;;;12.23;;
67816;SDS011;54614;47.576;7.524;2023-06-22T05:34:30;24.35;;;11.25;;
67816;SDS011;54614;47.576;7.524;2023-06-22T05:36:56;26.65;;;13.45;;
67816;SDS011;54614;47.576;7.524;2023-06-22T05:39:24;24.48;;;12.60;;
67816;SDS011;54614;47.576;7.524;2023-06-22T05:41:50;29.65;;;15.07;;
67816;SDS011;54614;47.576;7.524;2023-06-22T05:44:16;34.38;;;15.85;;
67816;SDS011;54614;47.576;7.524;2023-06-22T05:46:42;30.67;;;14.70;;
67816;SDS011;54614;47.576;7.524;2023-06-22T05:49:13;24.98;;;12.18;;
67816;SDS011;54614;47.576;7.524;2023-06-22T05:51:39;26.05;;;11.15;;
67816;SDS011;54614;47.576;7.524;2023-06-22T05:54:05;30.17;;;12.13;;
67816;SDS011;54614;47.576;7.524;2023-06-22T05:56:31;23.02;;;10.68;;
67816;SDS011;54614;47.576;7.524;2023-06-22T05:58:57;19.58;;;10.23;;
67816;SDS011;54614;47.576;7.524;2023-06-22T06:01:23;15.35;;;8.93;;
67816;SDS011;54614;47.576;7.524;2023-06-22T06:03:50;14.88;;;9.05;;
67816;SDS011;54614;47.576;7.524;2023-06-22T06:06:17;18.50;;;9.07;;
67816;SDS011;54614;47.576;7.524;2023-06-22T06:08:43;14.18;;;8.80;;
67816;SDS011;54614;47.576;7.524;2023-06-22T06:11:09;17.65;;;8.68;;
67816;SDS011;54614;47.576;7.524;2023-06-22T06:13:34;13.68;;;8.32;;
67816;SDS011;54614;47.576;7.524;2023-06-22T06:16:00;13.85;;;8.80;;
67816;SDS011;54614;47.576;7.524;2023-06-22T06:18:26;15.45;;;8.05;;
67816;SDS011;54614;47.576;7.524;2023-06-22T06:20:51;15.23;;;8.23;;
67816;SDS011;54614;47.576;7.524;2023-06-22T06:23:18;17.88;;;8.30;;
67816;SDS011;54614;47.576;7.524;2023-06-22T06:25:43;16.08;;;8.38;;
67816;SDS011;54614;47.576;7.524;2023-06-22T06:28:09;16.95;;;7.45;;
67816;SDS011;54614;47.576;7.524;2023-06-22T06:30:35;15.75;;;8.00;;
67816;SDS011;54614;47.576;7.524;2023-06-22T06:33:02;13.38;;;8.00;;
67816;SDS011;54614;47.576;7.524;2023-06-22T06:35:29;11.98;;;7.50;;
67816;SDS011;54614;47.576;7.524;2023-06-22T06:37:55;15.70;;;7.70;;
67816;SDS011;54614;47.576;7.524;2023-06-22T06:40:30;13.40;;;7.40;;
67816;SDS011;54614;47.576;7.524;2023-06-22T06:42:56;11.73;;;7.90;;
67816;SDS011;54614;47.576;7.524;2023-06-22T06:45:22;16.88;;;7.82;;
67816;SDS011;54614;47.576;7.524;2023-06-22T06:47:49;13.32;;;7.43;;
67816;SDS011;54614;47.576;7.524;2023-06-22T06:50:16;11.75;;;7.13;;
67816;SDS011;54614;47.576;7.524;2023-06-22T06:52:42;11.73;;;7.50;;
67816;SDS011;54614;47.576;7.524;2023-06-22T06:55:07;13.98;;;7.40;;
67816;SDS011;54614;47.576;7.524;2023-06-22T06:57:36;14.60;;;7.60;;
67816;SDS011;54614;47.576;7.524;2023-06-22T07:00:10;12.45;;;7.03;;
67816;SDS011;54614;47.576;7.524;2023-06-22T07:02:42;10.48;;;7.20;;
67816;SDS011;54614;47.576;7.524;2023-06-22T07:05:09;12.32;;;7.28;;
67816;SDS011;54614;47.576;7.524;2023-06-22T07:07:35;15.02;;;7.22;;
67816;SDS011;54614;47.576;7.524;2023-06-22T07:10:01;15.18;;;7.72;;
67816;SDS011;54614;47.576;7.524;2023-06-22T07:12:28;14.23;;;7.13;;
67816;SDS011;54614;47.576;7.524;2023-06-22T07:14:54;13.55;;;6.90;;
67816;SDS011;54614;47.576;7.524;2023-06-22T07:17:25;13.50;;;7.10;;
67816;SDS011;54614;47.576;7.524;2023-06-22T07:19:51;10.50;;;7.05;;
67816;SDS011;54614;47.576;7.524;2023-06-22T07:22:16;10.60;;;6.65;;
67816;SDS011;54614;47.576;7.524;2023-06-22T07:24:42;12.55;;;6.82;;
67816;SDS011;54614;47.576;7.524;2023-06-22T07:27:07;13.38;;;7.18;;
67816;SDS011;54614;47.576;7.524;2023-06-22T07:29:36;10.77;;;6.70;;
67816;SDS011;54614;47.576;7.524;2023-06-22T07:32:01;14.10;;;6.82;;
67816;SDS011;54614;47.576;7.524;2023-06-22T07:34:29;11.80;;;6.90;;
67816;SDS011;54614;47.576;7.524;2023-06-22T07:36:55;13.45;;;6.90;;
67816;SDS011;54614;47.576;7.524;2023-06-22T07:39:21;12.73;;;7.25;;
67816;SDS011;54614;47.576;7.524;2023-06-22T07:41:51;11.55;;;6.43;;
67816;SDS011;54614;47.576;7.524;2023-06-22T07:44:17;10.38;;;6.70;;
67816;SDS011;54614;47.576;7.524;2023-06-22T07:46:43;12.07;;;7.10;;
67816;SDS011;54614;47.576;7.524;2023-06-22T07:49:09;9.48;;;6.68;;
67816;SDS011;54614;47.576;7.524;2023-06-22T07:51:34;11.43;;;6.88;;
67816;SDS011;54614;47.576;7.524;2023-06-22T07:54:00;11.90;;;6.82;;
67816;SDS011;54614;47.576;7.524;2023-06-22T07:56:26;12.02;;;6.70;;
67816;SDS011;54614;47.576;7.524;2023-06-22T07:58:51;11.45;;;6.90;;
67816;SDS011;54614;47.576;7.524;2023-06-22T08:01:18;10.07;;;6.60;;
67816;SDS011;54614;47.576;7.524;2023-06-22T08:03:46;10.85;;;6.65;;
67816;SDS011;54614;47.576;7.524;2023-06-22T08:06:13;10.23;;;6.30;;
67816;SDS011;54614;47.576;7.524;2023-06-22T08:08:39;14.57;;;6.40;;
67816;SDS011;54614;47.576;7.524;2023-06-22T08:11:05;11.95;;;6.57;;
67816;SDS011;54614;47.576;7.524;2023-06-22T08:13:30;10.35;;;6.63;;
67816;SDS011;54614;47.576;7.524;2023-06-22T08:15:56;10.10;;;6.45;;
67816;SDS011;54614;47.576;7.524;2023-06-22T08:18:22;8.32;;;6.03;;
67816;SDS011;54614;47.576;7.524;2023-06-22T08:20:48;11.25;;;6.50;;
67816;SDS011;54614;47.576;7.524;2023-06-22T08:23:14;8.77;;;6.47;;
67816;SDS011;54614;47.576;7.524;2023-06-22T08:25:40;10.38;;;6.47;;
67816;SDS011;54614;47.576;7.524;2023-06-22T08:28:05;11.98;;;6.53;;
67816;SDS011;54614;47.576;7.524;2023-06-22T08:30:32;10.70;;;6.50;;
67816;SDS011;54614;47.576;7.524;2023-06-22T08:32:57;9.38;;;6.15;;
67816;SDS011;54614;47.576;7.524;2023-06-22T08:35:23;8.98;;;6.38;;
67816;SDS011;54614;47.576;7.524;2023-06-22T08:37:49;9.40;;;6.18;;
67816;SDS011;54614;47.576;7.524;2023-06-22T08:40:17;10.43;;;6.38;;
67816;SDS011;54614;47.576;7.524;2023-06-22T08:42:45;8.20;;;6.03;;
67816;SDS011;54614;47.576;7.524;2023-06-22T08:45:11;8.95;;;6.22;;
67816;SDS011;54614;47.576;7.524;2023-06-22T08:47:37;8.65;;;6.20;;
67816;SDS011;54614;47.576;7.524;2023-06-22T08:50:04;9.98;;;6.00;;
67816;SDS011;54614;47.576;7.524;2023-06-22T08:52:31;8.90;;;6.40;;
67816;SDS011;54614;47.576;7.524;2023-06-22T08:54:57;8.55;;;6.53;;
67816;SDS011;54614;47.576;7.524;2023-06-22T08:57:26;9.18;;;6.22;;
67816;SDS011;54614;47.576;7.524;2023-06-22T08:59:52;10.27;;;6.00;;
67816;SDS011;54614;47.576;7.524;2023-06-22T09:02:18;8.63;;;5.95;;
67816;SDS011;54614;47.576;7.524;2023-06-22T09:04:45;9.13;;;5.72;;
67816;SDS011;54614;47.576;7.524;2023-06-22T09:07:11;7.70;;;5.72;;
67816;SDS011;54614;47.576;7.524;2023-06-22T09:09:37;8.02;;;6.10;;
67816;SDS011;54614;47.576;7.524;2023-06-22T09:12:02;9.25;;;6.15;;
67816;SDS011;54614;47.576;7.524;2023-06-22T09:14:29;7.50;;;5.70;;
67816;SDS011;54614;47.576;7.524;2023-06-22T09:16:54;7.95;;;5.43;;
67816;SDS011;54614;47.576;7.524;2023-06-22T09:19:20;9.13;;;6.13;;
67816;SDS011;54614;47.576;7.524;2023-06-22T09:21:46;9.35;;;6.13;;
67816;SDS011;54614;47.576;7.524;2023-06-22T09:24:11;9.15;;;6.40;;
67816;SDS011;54614;47.576;7.524;2023-06-22T09:26:37;7.88;;;5.78;;
67816;SDS011;54614;47.576;7.524;2023-06-22T09:29:04;7.55;;;5.70;;
67816;SDS011;54614;47.576;7.524;2023-06-22T09:31:31;9.77;;;6.10;;
67816;SDS011;54614;47.576;7.524;2023-06-22T09:33:56;7.65;;;5.60;;
67816;SDS011;54614;47.576;7.524;2023-06-22T09:36:22;7.05;;;5.78;;
67816;SDS011;54614;47.576;7.524;2023-06-22T09:38:48;8.45;;;5.80;;
67816;SDS011;54614;47.576;7.524;2023-06-22T09:41:23;10.93;;;6.18;;
67816;SDS011;54614;47.576;7.524;2023-06-22T09:43:49;7.13;;;5.55;;
67816;SDS011;54614;47.576;7.524;2023-06-22T09:46:15;8.15;;;5.50;;
67816;SDS011;54614;47.576;7.524;2023-06-22T09:48:41;7.78;;;5.70;;
67816;SDS011;54614;47.576;7.524;2023-06-22T09:51:07;8.10;;;6.00;;
67816;SDS011;54614;47.576;7.524;2023-06-22T09:53:32;8.43;;;6.00;;
67816;SDS011;54614;47.576;7.524;2023-06-22T09:55:59;7.32;;;5.50;;
67816;SDS011;54614;47.576;7.524;2023-06-22T09:58:25;8.55;;;5.70;;
67816;SDS011;54614;47.576;7.524;2023-06-22T10:00:51;9.68;;;5.70;;
67816;SDS011;54614;47.576;7.524;2023-06-22T10:03:18;7.95;;;5.22;;
67816;SDS011;54614;47.576;7.524;2023-06-22T10:05:43;10.15;;;5.93;;
67816;SDS011;54614;47.576;7.524;2023-06-22T10:08:09;8.88;;;5.65;;
67816;SDS011;54614;47.576;7.524;2023-06-22T10:10:35;8.55;;;5.97;;
67816;SDS011;54614;47.576;7.524;2023-06-22T10:13:08;6.88;;;5.85;;
67816;SDS011;54614;47.576;7.524;2023-06-22T10:15:38;8.50;;;5.82;;
67816;SDS011;54614;47.576;7.524;2023-06-22T10:18:04;9.57;;;5.45;;
67816;SDS011;54614;47.576;7.524;2023-06-22T10:20:29;7.45;;;5.40;;
67816;SDS011;54614;47.576;7.524;2023-06-22T10:22:55;7.03;;;5.65;;
67816;SDS011;54614;47.576;7.524;2023-06-22T10:25:21;8.50;;;5.70;;
67816;SDS011;54614;47.576;7.524;2023-06-22T10:27:47;6.57;;;5.50;;
67816;SDS011;54614;47.576;7.524;2023-06-22T10:30:13;8.20;;;5.90;;
67816;SDS011;54614;47.576;7.524;2023-06-22T10:32:40;8.18;;;5.70;;
67816;SDS011;54614;47.576;7.524;2023-06-22T10:35:07;9.50;;;5.53;;
67816;SDS011;54614;47.576;7.524;2023-06-22T10:37:33;6.65;;;5.47;;
67816;SDS011;54614;47.576;7.524;2023-06-22T10:39:59;7.25;;;5.53;;
67816;SDS011;54614;47.576;7.524;2023-06-22T10:42:25;7.68;;;5.82;;
67816;SDS011;54614;47.576;7.524;2023-06-22T10:44:50;9.23;;;5.45;;
67816;SDS011;54614;47.576;7.524;2023-06-22T10:47:16;6.93;;;5.53;;
67816;SDS011;54614;47.576;7.524;2023-06-22T10:49:41;5.47;;;4.95;;
67816;SDS011;54614;47.576;7.524;2023-06-22T10:52:08;7.60;;;5.80;;
67816;SDS011;54614;47.576;7.524;2023-06-22T10:54:38;7.07;;;5.25;;
67816;SDS011;54614;47.576;7.524;2023-06-22T10:57:04;6.68;;;5.20;;
67816;SDS011;54614;47.576;7.524;2023-06-22T10:59:30;8.13;;;5.75;;
67816;SDS011;54614;47.576;7.524;2023-06-22T11:01:56;6.10;;;5.18;;
67816;SDS011;54614;47.576;7.524;2023-06-22T11:04:22;6.47;;;5.10;;
67816;SDS011;54614;47.576;7.524;2023-06-22T11:06:49;6.50;;;5.05;;
67816;SDS011;54614;47.576;7.524;2023-06-22T11:09:14;6.72;;;5.10;;
67816;SDS011;54614;47.576;7.524;2023-06-22T11:11:45;6.00;;;5.40;;
67816;SDS011;54614;47.576;7.524;2023-06-22T11:14:11;6.30;;;5.07;;
67816;SDS011;54614;47.576;7.524;2023-06-22T11:16:37;7.38;;;5.15;;
67816;SDS011;54614;47.576;7.524;2023-06-22T11:19:04;6.22;;;5.13;;
67816;SDS011;54614;47.576;7.524;2023-06-22T11:21:30;6.85;;;5.00;;
67816;SDS011;54614;47.576;7.524;2023-06-22T11:23:56;6.63;;;5.07;;
67816;SDS011;54614;47.576;7.524;2023-06-22T11:26:22;7.22;;;5.40;;
67816;SDS011;54614;47.576;7.524;2023-06-22T11:28:48;6.57;;;5.05;;
67816;SDS011;54614;47.576;7.524;2023-06-22T11:31:14;5.85;;;5.03;;
67816;SDS011;54614;47.576;7.524;2023-06-22T11:33:39;7.07;;;5.43;;
67816;SDS011;54614;47.576;7.524;2023-06-22T11:36:05;5.93;;;5.20;;
67816;SDS011;54614;47.576;7.524;2023-06-22T11:38:32;7.45;;;5.07;;
67816;SDS011;54614;47.576;7.524;2023-06-22T11:40:58;6.15;;;5.32;;
67816;SDS011;54614;47.576;7.524;2023-06-22T11:43:24;6.85;;;5.32;;
67816;SDS011;54614;47.576;7.524;2023-06-22T11:45:50;6.53;;;5.28;;
67816;SDS011;54614;47.576;7.524;2023-06-22T11:48:15;7.43;;;5.32;;
67816;SDS011;54614;47.576;7.524;2023-06-22T11:50:41;6.13;;;4.93;;
67816;SDS011;54614;47.576;7.524;2023-06-22T11:53:07;5.82;;;5.00;;
67816;SDS011;54614;47.576;7.524;2023-06-22T11:55:32;5.75;;;4.97;;
67816;SDS011;54614;47.576;7.524;2023-06-22T11:57:58;5.63;;;4.60;;
67816;SDS011;54614;47.576;7.524;2023-06-22T12:00:25;5.53;;;4.80;;
67816;SDS011;54614;47.576;7.524;2023-06-22T12:02:51;6.35;;;5.07;;
67816;SDS011;54614;47.576;7.524;2023-06-22T12:05:20;5.55;;;4.97;;
67816;SDS011;54614;47.576;7.524;2023-06-22T12:07:47;7.68;;;4.93;;
67816;SDS011;54614;47.576;7.524;2023-06-22T12:10:14;5.53;;;4.80;;
67816;SDS011;54614;47.576;7.524;2023-06-22T12:12:40;5.95;;;4.85;;
67816;SDS011;54614;47.576;7.524;2023-06-22T12:15:06;5.57;;;4.72;;
67816;SDS011;54614;47.576;7.524;2023-06-22T12:17:34;7.72;;;4.90;;
67816;SDS011;54614;47.576;7.524;2023-06-22T12:19:59;6.18;;;4.80;;
67816;SDS011;54614;47.576;7.524;2023-06-22T12:22:26;5.38;;;4.80;;
67816;SDS011;54614;47.576;7.524;2023-06-22T12:24:52;5.68;;;4.65;;
67816;SDS011;54614;47.576;7.524;2023-06-22T12:27:18;6.45;;;5.30;;
67816;SDS011;54614;47.576;7.524;2023-06-22T12:29:47;5.15;;;4.53;;
67816;SDS011;54614;47.576;7.524;2023-06-22T12:32:13;6.35;;;5.07;;
67816;SDS011;54614;47.576;7.524;2023-06-22T12:34:39;6.15;;;4.93;;
67816;SDS011;54614;47.576;7.524;2023-06-22T12:37:06;5.18;;;4.68;;
67816;SDS011;54614;47.576;7.524;2023-06-22T12:39:32;6.35;;;5.10;;
67816;SDS011;54614;47.576;7.524;2023-06-22T12:41:57;6.65;;;4.95;;
67816;SDS011;54614;47.576;7.524;2023-06-22T12:44:23;6.18;;;5.10;;
67816;SDS011;54614;47.576;7.524;2023-06-22T12:46:49;5.78;;;4.60;;
67816;SDS011;54614;47.576;7.524;2023-06-22T12:49:15;6.72;;;4.85;;
67816;SDS011;54614;47.576;7.524;2023-06-22T12:51:41;5.43;;;4.50;;
67816;SDS011;54614;47.576;7.524;2023-06-22T12:54:10;5.70;;;4.72;;
67816;SDS011;54614;47.576;7.524;2023-06-22T12:56:36;5.20;;;4.47;;
67816;SDS011;54614;47.576;7.524;2023-06-22T12:59:03;5.68;;;4.70;;
67816;SDS011;54614;47.576;7.524;2023-06-22T13:01:29;6.43;;;4.93;;
67816;SDS011;54614;47.576;7.524;2023-06-22T13:03:56;5.60;;;4.43;;
67816;SDS011;54614;47.576;7.524;2023-06-22T13:06:21;5.72;;;4.85;;
67816;SDS011;54614;47.576;7.524;2023-06-22T13:08:47;4.93;;;4.45;;
67816;SDS011;54614;47.576;7.524;2023-06-22T13:11:13;6.07;;;4.70;;
67816;SDS011;54614;47.576;7.524;2023-06-22T13:13:38;4.93;;;4.40;;
67816;SDS011;54614;47.576;7.524;2023-06-22T13:16:05;5.75;;;4.63;;
67816;SDS011;54614;47.576;7.524;2023-06-22T13:18:30;5.63;;;4.63;;
67816;SDS011;54614;47.576;7.524;2023-06-22T13:20:56;6.82;;;4.88;;
67816;SDS011;54614;47.576;7.524;2023-06-22T13:23:23;5.93;;;4.40;;
67816;SDS011;54614;47.576;7.524;2023-06-22T13:25:48;5.43;;;4.65;;
67816;SDS011;54614;47.576;7.524;2023-06-22T13:28:14;4.95;;;4.43;;
67816;SDS011;54614;47.576;7.524;2023-06-22T13:30:42;4.90;;;4.35;;
67816;SDS011;54614;47.576;7.524;2023-06-22T13:33:10;5.15;;;4.65;;
67816;SDS011;54614;47.576;7.524;2023-06-22T13:35:36;5.80;;;4.70;;
67816;SDS011;54614;47.576;7.524;2023-06-22T13:38:02;5.32;;;4.68;;
67816;SDS011;54614;47.576;7.524;2023-06-22T13:40:28;5.55;;;4.85;;
67816;SDS011;54614;47.576;7.524;2023-06-22T13:42:54;5.55;;;4.60;;
67816;SDS011;54614;47.576;7.524;2023-06-22T13:45:20;5.20;;;4.65;;
67816;SDS011;54614;47.576;7.524;2023-06-22T13:47:46;5.88;;;4.82;;
67816;SDS011;54614;47.576;7.524;2023-06-22T13:50:12;5.82;;;4.78;;
67816;SDS011;54614;47.576;7.524;2023-06-22T13:52:38;5.38;;;4.60;;
67816;SDS011;54614;47.576;7.524;2023-06-22T13:55:04;5.70;;;4.80;;
67816;SDS011;54614;47.576;7.524;2023-06-22T13:57:31;7.00;;;4.80;;
67816;SDS011;54614;47.576;7.524;2023-06-22T13:59:58;4.70;;;4.20;;
67816;SDS011;54614;47.576;7.524;2023-06-22T14:02:25;5.57;;;4.45;;
67816;SDS011;54614;47.576;7.524;2023-06-22T14:04:51;5.22;;;4.68;;
67816;SDS011;54614;47.576;7.524;2023-06-22T14:07:17;7.63;;;4.65;;
67816;SDS011;54614;47.576;7.524;2023-06-22T14:09:44;6.32;;;4.65;;
67816;SDS011;54614;47.576;7.524;2023-06-22T14:12:10;6.07;;;4.88;;
67816;SDS011;54614;47.576;7.524;2023-06-22T14:14:36;5.40;;;4.22;;
67816;SDS011;54614;47.576;7.524;2023-06-22T14:17:03;5.40;;;4.40;;
67816;SDS011;54614;47.576;7.524;2023-06-22T14:19:29;4.82;;;4.35;;
67816;SDS011;54614;47.576;7.524;2023-06-22T14:21:55;5.03;;;4.47;;
67816;SDS011;54614;47.576;7.524;2023-06-22T14:24:21;5.03;;;4.53;;
67816;SDS011;54614;47.576;7.524;2023-06-22T14:26:48;5.55;;;4.70;;
67816;SDS011;54614;47.576;7.524;2023-06-22T14:29:13;4.63;;;4.13;;
67816;SDS011;54614;47.576;7.524;2023-06-22T14:31:39;6.32;;;4.68;;
67816;SDS011;54614;47.576;7.524;2023-06-22T14:34:05;4.95;;;3.90;;
67816;SDS011;54614;47.576;7.524;2023-06-22T14:36:31;5.40;;;4.50;;
67816;SDS011;54614;47.576;7.524;2023-06-22T14:38:56;4.63;;;4.10;;
67816;SDS011;54614;47.576;7.524;2023-06-22T14:41:22;4.97;;;4.47;;
67816;SDS011;54614;47.576;7.524;2023-06-22T14:43:49;4.70;;;4.13;;
67816;SDS011;54614;47.576;7.524;2023-06-22T14:46:15;5.13;;;4.32;;
67816;SDS011;54614;47.576;7.524;2023-06-22T14:48:42;4.38;;;3.97;;
67816;SDS011;54614;47.576;7.524;2023-06-22T14:51:09;4.78;;;4.15;;
67816;SDS011;54614;47.576;7.524;2023-06-22T14:53:35;5.25;;;4.43;;